sensor_id;sensor_type;location;lat;lon;timestamp;P1;durP1;ratioP1;P2;durP2;ratioP2
1048;SDS011;513;51.444;7.196;2023-05-10T00:01:57;9.45;;;7.53;;
1048;SDS011;513;51.444;7.196;2023-05-10T00:04:24;9.55;;;7.38;;
1048;SDS011;513;51.444;7.196;2023-05-10T00:06:52;10.77;;;7.90;;
1048;SDS011;513;51.444;7.196;2023-05-10T00:09:19;10.73;;;8.00;;
1048;SDS011;513;51.444;7.196;2023-05-10T00:11:46;10.10;;;7.70;;
1048;SDS011;513;51.444;7.196;2023-05-10T00:14:14;9.05;;;7.28;;
1048;SDS011;513;51.444;7.196;2023-05-10T00:16:40;9.98;;;7.72;;
1048;SDS011;513;51.444;7.196;2023-05-10T00:19:07;11.32;;;8.30;;
1048;SDS011;513;51.444;7.196;2023-05-10T00:21:34;9.45;;;7.88;;
1048;SDS011;513;51.444;7.196;2023-05-10T00:24:00;9.50;;;7.40;;
1048;SDS011;513;51.444;7.196;2023-05-10T00:26:27;12.27;;;8.15;;
1048;SDS011;513;51.444;7.196;2023-05-10T00:28:54;12.05;;;7.75;;
1048;SDS011;513;51.444;7.196;2023-05-10T00:31:22;9.50;;;7.65;;
1048;SDS011;513;51.444;7.196;2023-05-10T00:33:48;10.77;;;8.00;;
1048;SDS011;513;51.444;7.196;2023-05-10T00:36:15;10.60;;;7.53;;
1048;SDS011;513;51.444;7.196;2023-05-10T00:38:41;12.75;;;8.77;;
1048;SDS011;513;51.444;7.196;2023-05-10T00:41:08;13.20;;;9.52;;
1048;SDS011;513;51.444;7.196;2023-05-10T00:43:35;14.23;;;9.73;;
1048;SDS011;513;51.444;7.196;2023-05-10T00:46:01;15.25;;;10.13;;
1048;SDS011;513;51.444;7.196;2023-05-10T00:48:30;13.43;;;9.82;;
1048;SDS011;513;51.444;7.196;2023-05-10T00:50:57;23.73;;;20.45;;
1048;SDS011;513;51.444;7.196;2023-05-10T00:53:24;15.20;;;10.50;;
1048;SDS011;513;51.444;7.196;2023-05-10T00:55:50;15.13;;;10.27;;
1048;SDS011;513;51.444;7.196;2023-05-10T00:58:17;15.80;;;10.40;;
1048;SDS011;513;51.444;7.196;2023-05-10T01:00:44;15.52;;;10.73;;
1048;SDS011;513;51.444;7.196;2023-05-10T01:03:13;18.63;;;11.15;;
1048;SDS011;513;51.444;7.196;2023-05-10T01:05:41;18.77;;;11.82;;
1048;SDS011;513;51.444;7.196;2023-05-10T01:08:08;17.35;;;11.93;;
1048;SDS011;513;51.444;7.196;2023-05-10T01:10:34;15.93;;;11.40;;
1048;SDS011;513;51.444;7.196;2023-05-10T01:13:01;17.65;;;12.27;;
1048;SDS011;513;51.444;7.196;2023-05-10T01:15:28;18.17;;;12.93;;
1048;SDS011;513;51.444;7.196;2023-05-10T01:17:57;17.75;;;12.48;;
1048;SDS011;513;51.444;7.196;2023-05-10T01:20:24;20.42;;;13.50;;
1048;SDS011;513;51.444;7.196;2023-05-10T01:23:02;20.80;;;13.73;;
1048;SDS011;513;51.444;7.196;2023-05-10T01:25:47;26.33;;;14.90;;
1048;SDS011;513;51.444;7.196;2023-05-10T01:31:31;18.33;;;12.23;;
1048;SDS011;513;51.444;7.196;2023-05-10T01:34:09;18.40;;;12.07;;
1048;SDS011;513;51.444;7.196;2023-05-10T01:36:42;18.33;;;11.57;;
1048;SDS011;513;51.444;7.196;2023-05-10T01:39:15;15.48;;;10.93;;
1048;SDS011;513;51.444;7.196;2023-05-10T01:41:49;17.03;;;11.00;;
1048;SDS011;513;51.444;7.196;2023-05-10T01:44:20;15.97;;;10.53;;
1048;SDS011;513;51.444;7.196;2023-05-10T01:46:57;19.67;;;10.53;;
1048;SDS011;513;51.444;7.196;2023-05-10T01:49:30;18.30;;;10.77;;
1048;SDS011;513;51.444;7.196;2023-05-10T01:52:04;15.68;;;10.50;;
1048;SDS011;513;51.444;7.196;2023-05-10T01:54:34;15.50;;;10.35;;
1048;SDS011;513;51.444;7.196;2023-05-10T01:57:05;16.30;;;10.50;;
1048;SDS011;513;51.444;7.196;2023-05-10T01:59:34;18.08;;;10.68;;
1048;SDS011;513;51.444;7.196;2023-05-10T02:02:05;17.17;;;11.02;;
1048;SDS011;513;51.444;7.196;2023-05-10T02:04:34;20.17;;;11.98;;
1048;SDS011;513;51.444;7.196;2023-05-10T02:07:03;20.55;;;12.10;;
1048;SDS011;513;51.444;7.196;2023-05-10T02:09:30;23.83;;;12.48;;
1048;SDS011;513;51.444;7.196;2023-05-10T02:11:59;22.55;;;13.02;;
1048;SDS011;513;51.444;7.196;2023-05-10T02:14:30;23.00;;;12.55;;
1048;SDS011;513;51.444;7.196;2023-05-10T02:17:00;23.25;;;12.50;;
1048;SDS011;513;51.444;7.196;2023-05-10T02:19:29;26.08;;;12.18;;
1048;SDS011;513;51.444;7.196;2023-05-10T02:21:58;23.83;;;12.87;;
1048;SDS011;513;51.444;7.196;2023-05-10T02:24:26;24.20;;;12.80;;
1048;SDS011;513;51.444;7.196;2023-05-10T02:26:54;25.10;;;13.20;;
1048;SDS011;513;51.444;7.196;2023-05-10T02:29:22;27.00;;;12.82;;
1048;SDS011;513;51.444;7.196;2023-05-10T02:31:51;27.15;;;13.43;;
1048;SDS011;513;51.444;7.196;2023-05-10T02:34:18;28.30;;;13.95;;
1048;SDS011;513;51.444;7.196;2023-05-10T02:36:46;26.27;;;13.98;;
1048;SDS011;513;51.444;7.196;2023-05-10T02:39:15;27.55;;;14.10;;
1048;SDS011;513;51.444;7.196;2023-05-10T02:41:43;25.48;;;13.80;;
1048;SDS011;513;51.444;7.196;2023-05-10T02:44:12;25.07;;;13.63;;
1048;SDS011;513;51.444;7.196;2023-05-10T02:46:41;27.33;;;14.00;;
1048;SDS011;513;51.444;7.196;2023-05-10T02:49:08;23.63;;;13.60;;
1048;SDS011;513;51.444;7.196;2023-05-10T02:51:35;27.73;;;14.57;;
1048;SDS011;513;51.444;7.196;2023-05-10T02:54:08;26.63;;;14.40;;
1048;SDS011;513;51.444;7.196;2023-05-10T02:56:40;24.98;;;13.27;;
1048;SDS011;513;51.444;7.196;2023-05-10T02:59:12;27.02;;;14.00;;
1048;SDS011;513;51.444;7.196;2023-05-10T03:01:38;24.70;;;14.18;;
1048;SDS011;513;51.444;7.196;2023-05-10T03:04:05;22.90;;;12.95;;
1048;SDS011;513;51.444;7.196;2023-05-10T03:06:32;21.63;;;12.93;;
1048;SDS011;513;51.444;7.196;2023-05-10T03:08:59;23.10;;;13.73;;
1048;SDS011;513;51.444;7.196;2023-05-10T03:11:33;26.15;;;13.90;;
1048;SDS011;513;51.444;7.196;2023-05-10T03:14:21;26.38;;;13.73;;
1048;SDS011;513;51.444;7.196;2023-05-10T03:17:02;27.88;;;13.23;;
1048;SDS011;513;51.444;7.196;2023-05-10T03:19:37;24.75;;;13.30;;
1048;SDS011;513;51.444;7.196;2023-05-10T03:22:11;26.05;;;14.05;;
1048;SDS011;513;51.444;7.196;2023-05-10T03:24:42;21.50;;;12.75;;
1048;SDS011;513;51.444;7.196;2023-05-10T03:27:11;24.38;;;13.00;;
1048;SDS011;513;51.444;7.196;2023-05-10T03:29:41;25.17;;;13.32;;
1048;SDS011;513;51.444;7.196;2023-05-10T03:32:09;26.07;;;15.00;;
1048;SDS011;513;51.444;7.196;2023-05-10T03:34:40;29.02;;;15.00;;
1048;SDS011;513;51.444;7.196;2023-05-10T03:37:08;30.77;;;16.05;;
1048;SDS011;513;51.444;7.196;2023-05-10T03:39:34;31.95;;;16.88;;
1048;SDS011;513;51.444;7.196;2023-05-10T03:42:02;36.67;;;17.83;;
1048;SDS011;513;51.444;7.196;2023-05-10T03:44:30;37.03;;;19.10;;
1048;SDS011;513;51.444;7.196;2023-05-10T03:46:58;41.90;;;20.33;;
1048;SDS011;513;51.444;7.196;2023-05-10T03:49:24;37.53;;;20.85;;
1048;SDS011;513;51.444;7.196;2023-05-10T03:51:51;36.20;;;19.70;;
1048;SDS011;513;51.444;7.196;2023-05-10T03:54:18;40.25;;;22.23;;
1048;SDS011;513;51.444;7.196;2023-05-10T03:56:45;42.88;;;22.38;;
1048;SDS011;513;51.444;7.196;2023-05-10T03:59:12;41.95;;;22.80;;
1048;SDS011;513;51.444;7.196;2023-05-10T04:01:40;47.00;;;24.88;;
1048;SDS011;513;51.444;7.196;2023-05-10T04:04:07;49.47;;;25.35;;
1048;SDS011;513;51.444;7.196;2023-05-10T04:06:33;45.50;;;23.80;;
1048;SDS011;513;51.444;7.196;2023-05-10T04:09:00;46.35;;;23.95;;
1048;SDS011;513;51.444;7.196;2023-05-10T04:11:29;43.45;;;22.85;;
1048;SDS011;513;51.444;7.196;2023-05-10T04:13:56;42.65;;;22.23;;
1048;SDS011;513;51.444;7.196;2023-05-10T04:16:23;41.97;;;21.30;;
1048;SDS011;513;51.444;7.196;2023-05-10T04:18:51;41.53;;;21.83;;
1048;SDS011;513;51.444;7.196;2023-05-10T04:21:17;40.83;;;21.17;;
1048;SDS011;513;51.444;7.196;2023-05-10T04:23:44;38.25;;;21.15;;
1048;SDS011;513;51.444;7.196;2023-05-10T04:26:10;39.28;;;20.75;;
1048;SDS011;513;51.444;7.196;2023-05-10T04:28:37;40.47;;;21.75;;
1048;SDS011;513;51.444;7.196;2023-05-10T04:31:04;43.28;;;23.10;;
1048;SDS011;513;51.444;7.196;2023-05-10T04:33:31;45.33;;;23.45;;
1048;SDS011;513;51.444;7.196;2023-05-10T04:36:00;43.15;;;22.80;;
1048;SDS011;513;51.444;7.196;2023-05-10T04:38:27;42.72;;;22.67;;
1048;SDS011;513;51.444;7.196;2023-05-10T04:40:54;44.67;;;24.25;;
1048;SDS011;513;51.444;7.196;2023-05-10T04:43:20;46.47;;;23.30;;
1048;SDS011;513;51.444;7.196;2023-05-10T04:45:47;47.95;;;24.42;;
1048;SDS011;513;51.444;7.196;2023-05-10T04:48:15;48.28;;;25.20;;
1048;SDS011;513;51.444;7.196;2023-05-10T04:50:41;45.65;;;24.70;;
1048;SDS011;513;51.444;7.196;2023-05-10T04:53:09;47.85;;;24.98;;
1048;SDS011;513;51.444;7.196;2023-05-10T04:55:36;47.45;;;24.30;;
1048;SDS011;513;51.444;7.196;2023-05-10T04:58:03;54.50;;;27.20;;
1048;SDS011;513;51.444;7.196;2023-05-10T05:00:29;52.97;;;26.43;;
1048;SDS011;513;51.444;7.196;2023-05-10T05:02:56;60.20;;;29.08;;
1048;SDS011;513;51.444;7.196;2023-05-10T05:05:23;60.08;;;28.35;;
1048;SDS011;513;51.444;7.196;2023-05-10T05:07:50;62.30;;;29.40;;
1048;SDS011;513;51.444;7.196;2023-05-10T05:10:18;60.45;;;28.90;;
1048;SDS011;513;51.444;7.196;2023-05-10T05:12:45;58.95;;;28.30;;
1048;SDS011;513;51.444;7.196;2023-05-10T05:15:11;59.63;;;28.37;;
1048;SDS011;513;51.444;7.196;2023-05-10T05:17:38;56.47;;;26.85;;
1048;SDS011;513;51.444;7.196;2023-05-10T05:20:05;54.03;;;27.30;;
1048;SDS011;513;51.444;7.196;2023-05-10T05:22:33;62.47;;;30.47;;
1048;SDS011;513;51.444;7.196;2023-05-10T05:24:59;60.22;;;30.10;;
1048;SDS011;513;51.444;7.196;2023-05-10T05:27:29;59.47;;;29.65;;
1048;SDS011;513;51.444;7.196;2023-05-10T05:29:56;57.35;;;28.83;;
1048;SDS011;513;51.444;7.196;2023-05-10T05:32:23;54.45;;;29.42;;
1048;SDS011;513;51.444;7.196;2023-05-10T05:34:50;58.97;;;30.23;;
1048;SDS011;513;51.444;7.196;2023-05-10T05:37:18;57.80;;;29.60;;
1048;SDS011;513;51.444;7.196;2023-05-10T05:39:46;57.97;;;29.17;;
1048;SDS011;513;51.444;7.196;2023-05-10T05:42:13;62.22;;;30.90;;
1048;SDS011;513;51.444;7.196;2023-05-10T05:44:42;60.80;;;30.73;;
1048;SDS011;513;51.444;7.196;2023-05-10T05:47:09;58.22;;;29.83;;
1048;SDS011;513;51.444;7.196;2023-05-10T05:49:36;58.30;;;30.38;;
1048;SDS011;513;51.444;7.196;2023-05-10T05:52:03;63.67;;;31.45;;
1048;SDS011;513;51.444;7.196;2023-05-10T05:54:30;57.60;;;31.60;;
1048;SDS011;513;51.444;7.196;2023-05-10T05:56:57;63.03;;;32.20;;
1048;SDS011;513;51.444;7.196;2023-05-10T05:59:25;66.43;;;33.40;;
1048;SDS011;513;51.444;7.196;2023-05-10T06:01:53;64.35;;;33.95;;
1048;SDS011;513;51.444;7.196;2023-05-10T06:04:19;67.30;;;34.93;;
1048;SDS011;513;51.444;7.196;2023-05-10T06:06:46;59.75;;;33.00;;
1048;SDS011;513;51.444;7.196;2023-05-10T06:09:13;62.40;;;33.17;;
1048;SDS011;513;51.444;7.196;2023-05-10T06:11:39;59.60;;;33.47;;
1048;SDS011;513;51.444;7.196;2023-05-10T06:14:06;60.60;;;33.13;;
1048;SDS011;513;51.444;7.196;2023-05-10T06:16:33;62.95;;;33.55;;
1048;SDS011;513;51.444;7.196;2023-05-10T06:19:01;57.23;;;32.90;;
1048;SDS011;513;51.444;7.196;2023-05-10T06:21:27;61.20;;;33.85;;
1048;SDS011;513;51.444;7.196;2023-05-10T06:23:54;60.70;;;33.72;;
1048;SDS011;513;51.444;7.196;2023-05-10T06:26:21;58.08;;;32.92;;
1048;SDS011;513;51.444;7.196;2023-05-10T06:28:48;61.08;;;34.60;;
1048;SDS011;513;51.444;7.196;2023-05-10T06:31:14;55.03;;;33.03;;
1048;SDS011;513;51.444;7.196;2023-05-10T06:33:41;56.97;;;33.70;;
1048;SDS011;513;51.444;7.196;2023-05-10T06:36:09;59.65;;;32.78;;
1048;SDS011;513;51.444;7.196;2023-05-10T06:38:36;55.67;;;32.75;;
1048;SDS011;513;51.444;7.196;2023-05-10T06:41:02;62.22;;;35.72;;
1048;SDS011;513;51.444;7.196;2023-05-10T06:43:29;60.00;;;35.30;;
1048;SDS011;513;51.444;7.196;2023-05-10T06:45:56;62.57;;;35.20;;
1048;SDS011;513;51.444;7.196;2023-05-10T06:48:22;56.17;;;33.78;;
1048;SDS011;513;51.444;7.196;2023-05-10T06:50:49;59.28;;;35.35;;
1048;SDS011;513;51.444;7.196;2023-05-10T06:53:17;55.35;;;32.70;;
1048;SDS011;513;51.444;7.196;2023-05-10T06:55:43;58.00;;;34.80;;
1048;SDS011;513;51.444;7.196;2023-05-10T06:58:10;52.20;;;33.22;;
1048;SDS011;513;51.444;7.196;2023-05-10T07:00:37;50.95;;;33.22;;
1048;SDS011;513;51.444;7.196;2023-05-10T07:03:05;49.93;;;31.33;;
1048;SDS011;513;51.444;7.196;2023-05-10T07:05:32;52.72;;;33.53;;
1048;SDS011;513;51.444;7.196;2023-05-10T07:07:58;50.00;;;31.25;;
1048;SDS011;513;51.444;7.196;2023-05-10T07:10:27;49.65;;;31.52;;
1048;SDS011;513;51.444;7.196;2023-05-10T07:12:53;50.78;;;30.42;;
1048;SDS011;513;51.444;7.196;2023-05-10T07:15:20;48.70;;;29.95;;
1048;SDS011;513;51.444;7.196;2023-05-10T07:17:47;51.33;;;30.35;;
1048;SDS011;513;51.444;7.196;2023-05-10T07:20:14;48.40;;;28.27;;
1048;SDS011;513;51.444;7.196;2023-05-10T07:22:41;48.22;;;28.48;;
1048;SDS011;513;51.444;7.196;2023-05-10T07:25:07;49.72;;;29.13;;
1048;SDS011;513;51.444;7.196;2023-05-10T07:27:36;47.60;;;28.70;;
1048;SDS011;513;51.444;7.196;2023-05-10T07:30:02;49.70;;;29.48;;
1048;SDS011;513;51.444;7.196;2023-05-10T07:32:30;51.97;;;30.25;;
1048;SDS011;513;51.444;7.196;2023-05-10T07:34:56;52.40;;;30.05;;
1048;SDS011;513;51.444;7.196;2023-05-10T07:37:23;49.38;;;30.33;;
1048;SDS011;513;51.444;7.196;2023-05-10T07:39:49;48.97;;;29.75;;
1048;SDS011;513;51.444;7.196;2023-05-10T07:42:16;49.72;;;28.98;;
1048;SDS011;513;51.444;7.196;2023-05-10T07:44:44;50.10;;;29.70;;
1048;SDS011;513;51.444;7.196;2023-05-10T07:47:12;51.97;;;29.50;;
1048;SDS011;513;51.444;7.196;2023-05-10T07:49:38;48.83;;;29.02;;
1048;SDS011;513;51.444;7.196;2023-05-10T07:52:05;51.55;;;30.15;;
1048;SDS011;513;51.444;7.196;2023-05-10T07:54:32;54.45;;;30.58;;
1048;SDS011;513;51.444;7.196;2023-05-10T07:56:59;51.85;;;30.30;;
1048;SDS011;513;51.444;7.196;2023-05-10T07:59:26;54.03;;;32.03;;
1048;SDS011;513;51.444;7.196;2023-05-10T08:01:54;52.35;;;31.13;;
1048;SDS011;513;51.444;7.196;2023-05-10T08:04:21;51.23;;;32.43;;
1048;SDS011;513;51.444;7.196;2023-05-10T08:06:47;52.75;;;32.30;;
1048;SDS011;513;51.444;7.196;2023-05-10T08:09:14;48.22;;;29.45;;
1048;SDS011;513;51.444;7.196;2023-05-10T08:11:42;45.83;;;28.00;;
1048;SDS011;513;51.444;7.196;2023-05-10T08:14:09;50.15;;;28.40;;
1048;SDS011;513;51.444;7.196;2023-05-10T08:16:35;50.38;;;28.63;;
1048;SDS011;513;51.444;7.196;2023-05-10T08:19:03;45.80;;;27.60;;
1048;SDS011;513;51.444;7.196;2023-05-10T08:21:30;47.33;;;28.10;;
1048;SDS011;513;51.444;7.196;2023-05-10T08:23:57;47.38;;;27.63;;
1048;SDS011;513;51.444;7.196;2023-05-10T08:26:24;48.00;;;28.05;;
1048;SDS011;513;51.444;7.196;2023-05-10T08:28:51;52.42;;;29.48;;
1048;SDS011;513;51.444;7.196;2023-05-10T08:31:18;51.22;;;29.17;;
1048;SDS011;513;51.444;7.196;2023-05-10T08:33:44;47.22;;;26.83;;
1048;SDS011;513;51.444;7.196;2023-05-10T08:36:12;46.70;;;26.05;;
1048;SDS011;513;51.444;7.196;2023-05-10T08:38:44;48.15;;;26.95;;
1048;SDS011;513;51.444;7.196;2023-05-10T08:41:11;43.63;;;24.58;;
1048;SDS011;513;51.444;7.196;2023-05-10T08:43:37;40.75;;;23.60;;
1048;SDS011;513;51.444;7.196;2023-05-10T08:46:06;42.33;;;24.60;;
1048;SDS011;513;51.444;7.196;2023-05-10T08:48:35;42.10;;;23.70;;
1048;SDS011;513;51.444;7.196;2023-05-10T08:51:03;36.88;;;22.23;;
1048;SDS011;513;51.444;7.196;2023-05-10T08:53:32;31.08;;;18.67;;
1048;SDS011;513;51.444;7.196;2023-05-10T08:56:01;27.27;;;15.82;;
1048;SDS011;513;51.444;7.196;2023-05-10T08:58:28;22.27;;;13.90;;
1048;SDS011;513;51.444;7.196;2023-05-10T09:00:54;20.25;;;13.63;;
1048;SDS011;513;51.444;7.196;2023-05-10T09:03:22;21.52;;;13.20;;
1048;SDS011;513;51.444;7.196;2023-05-10T09:05:49;19.92;;;12.02;;
1048;SDS011;513;51.444;7.196;2023-05-10T09:08:16;19.50;;;12.80;;
1048;SDS011;513;51.444;7.196;2023-05-10T09:10:46;19.67;;;13.13;;
1048;SDS011;513;51.444;7.196;2023-05-10T09:13:14;21.73;;;13.80;;
1048;SDS011;513;51.444;7.196;2023-05-10T09:15:41;22.20;;;14.30;;
1048;SDS011;513;51.444;7.196;2023-05-10T09:18:09;22.33;;;14.10;;
1048;SDS011;513;51.444;7.196;2023-05-10T09:20:36;21.43;;;14.30;;
1048;SDS011;513;51.444;7.196;2023-05-10T09:23:02;19.90;;;14.45;;
1048;SDS011;513;51.444;7.196;2023-05-10T09:25:29;21.63;;;14.20;;
1048;SDS011;513;51.444;7.196;2023-05-10T09:27:59;21.88;;;13.90;;
1048;SDS011;513;51.444;7.196;2023-05-10T09:30:26;21.63;;;14.18;;
1048;SDS011;513;51.444;7.196;2023-05-10T09:32:55;20.40;;;13.98;;
1048;SDS011;513;51.444;7.196;2023-05-10T09:35:22;22.15;;;13.48;;
1048;SDS011;513;51.444;7.196;2023-05-10T09:37:51;20.88;;;13.57;;
1048;SDS011;513;51.444;7.196;2023-05-10T09:40:20;21.35;;;14.40;;
1048;SDS011;513;51.444;7.196;2023-05-10T09:42:50;20.80;;;13.90;;
1048;SDS011;513;51.444;7.196;2023-05-10T09:45:19;22.03;;;13.80;;
1048;SDS011;513;51.444;7.196;2023-05-10T09:47:47;23.95;;;14.45;;
1048;SDS011;513;51.444;7.196;2023-05-10T09:50:13;24.90;;;14.68;;
1048;SDS011;513;51.444;7.196;2023-05-10T09:52:47;26.73;;;14.98;;
1048;SDS011;513;51.444;7.196;2023-05-10T09:55:15;25.45;;;14.70;;
1048;SDS011;513;51.444;7.196;2023-05-10T09:57:43;25.10;;;15.63;;
1048;SDS011;513;51.444;7.196;2023-05-10T10:00:10;27.02;;;15.73;;
1048;SDS011;513;51.444;7.196;2023-05-10T10:02:45;24.95;;;14.85;;
1048;SDS011;513;51.444;7.196;2023-05-10T10:05:13;23.70;;;14.30;;
1048;SDS011;513;51.444;7.196;2023-05-10T10:07:40;26.45;;;15.38;;
1048;SDS011;513;51.444;7.196;2023-05-10T10:10:08;24.08;;;15.98;;
1048;SDS011;513;51.444;7.196;2023-05-10T10:12:37;29.52;;;18.73;;
1048;SDS011;513;51.444;7.196;2023-05-10T10:15:05;33.22;;;20.23;;
1048;SDS011;513;51.444;7.196;2023-05-10T10:17:34;33.45;;;20.30;;
1048;SDS011;513;51.444;7.196;2023-05-10T10:20:04;36.83;;;21.80;;
1048;SDS011;513;51.444;7.196;2023-05-10T10:22:32;37.00;;;22.13;;
1048;SDS011;513;51.444;7.196;2023-05-10T10:24:59;37.08;;;20.90;;
1048;SDS011;513;51.444;7.196;2023-05-10T10:27:28;32.08;;;19.88;;
1048;SDS011;513;51.444;7.196;2023-05-10T10:30:04;31.73;;;20.00;;
1048;SDS011;513;51.444;7.196;2023-05-10T10:32:42;28.88;;;18.88;;
1048;SDS011;513;51.444;7.196;2023-05-10T10:35:31;27.10;;;16.50;;
1048;SDS011;513;51.444;7.196;2023-05-10T10:37:59;24.05;;;15.55;;
1048;SDS011;513;51.444;7.196;2023-05-10T10:40:27;25.75;;;15.50;;
1048;SDS011;513;51.444;7.196;2023-05-10T10:42:55;22.42;;;15.38;;
1048;SDS011;513;51.444;7.196;2023-05-10T10:45:23;24.27;;;15.30;;
1048;SDS011;513;51.444;7.196;2023-05-10T10:47:53;24.45;;;15.00;;
1048;SDS011;513;51.444;7.196;2023-05-10T10:50:44;23.50;;;14.60;;
1048;SDS011;513;51.444;7.196;2023-05-10T10:53:11;22.67;;;15.13;;
1048;SDS011;513;51.444;7.196;2023-05-10T10:55:44;25.52;;;15.95;;
1048;SDS011;513;51.444;7.196;2023-05-10T10:58:15;22.70;;;15.13;;
1048;SDS011;513;51.444;7.196;2023-05-10T11:01:08;20.75;;;14.98;;
1048;SDS011;513;51.444;7.196;2023-05-10T11:03:37;21.73;;;16.40;;
1048;SDS011;513;51.444;7.196;2023-05-10T11:06:05;23.65;;;16.90;;
1048;SDS011;513;51.444;7.196;2023-05-10T11:08:33;23.15;;;17.85;;
1048;SDS011;513;51.444;7.196;2023-05-10T11:11:04;25.17;;;18.75;;
1048;SDS011;513;51.444;7.196;2023-05-10T11:13:37;26.63;;;18.77;;
1048;SDS011;513;51.444;7.196;2023-05-10T11:16:10;23.30;;;17.38;;
1048;SDS011;513;51.444;7.196;2023-05-10T11:18:38;25.90;;;17.80;;
1048;SDS011;513;51.444;7.196;2023-05-10T11:21:08;22.30;;;16.45;;
1048;SDS011;513;51.444;7.196;2023-05-10T11:23:47;23.15;;;16.95;;
1048;SDS011;513;51.444;7.196;2023-05-10T11:26:15;22.70;;;16.63;;
1048;SDS011;513;51.444;7.196;2023-05-10T11:28:42;20.38;;;14.73;;
1048;SDS011;513;51.444;7.196;2023-05-10T11:31:09;22.20;;;15.48;;
1048;SDS011;513;51.444;7.196;2023-05-10T11:33:42;20.75;;;15.05;;
1048;SDS011;513;51.444;7.196;2023-05-10T11:36:11;23.27;;;14.57;;
1048;SDS011;513;51.444;7.196;2023-05-10T11:38:38;17.70;;;12.95;;
1048;SDS011;513;51.444;7.196;2023-05-10T11:41:05;26.00;;;15.38;;
1048;SDS011;513;51.444;7.196;2023-05-10T11:43:33;19.38;;;12.85;;
1048;SDS011;513;51.444;7.196;2023-05-10T11:46:01;18.88;;;13.45;;
1048;SDS011;513;51.444;7.196;2023-05-10T11:48:29;18.77;;;13.05;;
1048;SDS011;513;51.444;7.196;2023-05-10T11:50:55;17.98;;;12.82;;
1048;SDS011;513;51.444;7.196;2023-05-10T11:53:24;20.20;;;13.35;;
1048;SDS011;513;51.444;7.196;2023-05-10T11:55:52;19.35;;;12.48;;
1048;SDS011;513;51.444;7.196;2023-05-10T11:58:18;19.75;;;12.13;;
1048;SDS011;513;51.444;7.196;2023-05-10T12:00:46;31.98;;;15.45;;
1048;SDS011;513;51.444;7.196;2023-05-10T12:03:13;15.60;;;11.50;;
1048;SDS011;513;51.444;7.196;2023-05-10T12:05:40;16.38;;;11.38;;
1048;SDS011;513;51.444;7.196;2023-05-10T12:08:10;19.55;;;13.38;;
1048;SDS011;513;51.444;7.196;2023-05-10T12:10:38;19.13;;;14.38;;
1048;SDS011;513;51.444;7.196;2023-05-10T12:13:05;19.93;;;14.20;;
1048;SDS011;513;51.444;7.196;2023-05-10T12:15:37;21.27;;;14.73;;
1048;SDS011;513;51.444;7.196;2023-05-10T12:18:04;17.90;;;13.68;;
1048;SDS011;513;51.444;7.196;2023-05-10T12:20:31;18.27;;;13.87;;
1048;SDS011;513;51.444;7.196;2023-05-10T12:22:58;16.20;;;12.98;;
1048;SDS011;513;51.444;7.196;2023-05-10T12:25:29;18.17;;;12.98;;
1048;SDS011;513;51.444;7.196;2023-05-10T12:27:59;18.58;;;13.80;;
1048;SDS011;513;51.444;7.196;2023-05-10T12:30:29;16.63;;;13.20;;
1048;SDS011;513;51.444;7.196;2023-05-10T12:32:59;18.00;;;13.20;;
1048;SDS011;513;51.444;7.196;2023-05-10T12:35:29;17.48;;;13.48;;
1048;SDS011;513;51.444;7.196;2023-05-10T12:37:56;17.65;;;12.95;;
1048;SDS011;513;51.444;7.196;2023-05-10T12:40:23;16.23;;;12.23;;
1048;SDS011;513;51.444;7.196;2023-05-10T12:42:50;15.88;;;12.13;;
1048;SDS011;513;51.444;7.196;2023-05-10T12:45:19;15.82;;;12.00;;
1048;SDS011;513;51.444;7.196;2023-05-10T12:47:46;18.73;;;12.48;;
1048;SDS011;513;51.444;7.196;2023-05-10T12:50:12;14.63;;;12.00;;
1048;SDS011;513;51.444;7.196;2023-05-10T12:52:39;16.63;;;12.68;;
1048;SDS011;513;51.444;7.196;2023-05-10T12:55:06;17.55;;;14.02;;
1048;SDS011;513;51.444;7.196;2023-05-10T12:57:33;18.05;;;14.85;;
1048;SDS011;513;51.444;7.196;2023-05-10T12:59:59;18.05;;;14.70;;
1048;SDS011;513;51.444;7.196;2023-05-10T13:02:27;21.23;;;17.83;;
1048;SDS011;513;51.444;7.196;2023-05-10T13:04:54;19.98;;;17.38;;
1048;SDS011;513;51.444;7.196;2023-05-10T13:07:21;21.25;;;16.77;;
1048;SDS011;513;51.444;7.196;2023-05-10T13:09:47;19.10;;;15.02;;
1048;SDS011;513;51.444;7.196;2023-05-10T13:12:14;17.65;;;14.02;;
1048;SDS011;513;51.444;7.196;2023-05-10T13:14:41;14.85;;;13.23;;
1048;SDS011;513;51.444;7.196;2023-05-10T13:17:07;17.55;;;13.75;;
1048;SDS011;513;51.444;7.196;2023-05-10T13:19:35;13.60;;;11.27;;
1048;SDS011;513;51.444;7.196;2023-05-10T13:22:02;12.27;;;10.32;;
1048;SDS011;513;51.444;7.196;2023-05-10T13:24:29;10.05;;;8.80;;
1048;SDS011;513;51.444;7.196;2023-05-10T13:26:55;11.30;;;8.20;;
1048;SDS011;513;51.444;7.196;2023-05-10T13:29:22;10.60;;;8.93;;
1048;SDS011;513;51.444;7.196;2023-05-10T13:31:49;10.68;;;9.15;;
1048;SDS011;513;51.444;7.196;2023-05-10T13:34:15;11.95;;;8.57;;
1048;SDS011;513;51.444;7.196;2023-05-10T13:36:46;9.95;;;7.45;;
1048;SDS011;513;51.444;7.196;2023-05-10T13:39:13;11.07;;;8.50;;
1048;SDS011;513;51.444;7.196;2023-05-10T13:41:40;8.80;;;7.35;;
1048;SDS011;513;51.444;7.196;2023-05-10T13:44:07;10.07;;;7.68;;
1048;SDS011;513;51.444;7.196;2023-05-10T13:46:34;8.48;;;7.38;;
1048;SDS011;513;51.444;7.196;2023-05-10T13:49:00;8.95;;;7.70;;
1048;SDS011;513;51.444;7.196;2023-05-10T13:51:27;8.00;;;6.18;;
1048;SDS011;513;51.444;7.196;2023-05-10T13:53:55;8.80;;;5.60;;
1048;SDS011;513;51.444;7.196;2023-05-10T13:56:22;5.60;;;5.00;;
1048;SDS011;513;51.444;7.196;2023-05-10T13:58:48;7.07;;;5.55;;
1048;SDS011;513;51.444;7.196;2023-05-10T14:01:16;5.90;;;4.50;;
1048;SDS011;513;51.444;7.196;2023-05-10T14:03:42;6.75;;;5.47;;
1048;SDS011;513;51.444;7.196;2023-05-10T14:06:09;5.82;;;4.97;;
1048;SDS011;513;51.444;7.196;2023-05-10T14:08:36;7.40;;;4.95;;
1048;SDS011;513;51.444;7.196;2023-05-10T14:11:04;6.70;;;5.10;;
1048;SDS011;513;51.444;7.196;2023-05-10T14:13:31;6.13;;;5.03;;
1048;SDS011;513;51.444;7.196;2023-05-10T14:15:57;6.60;;;5.03;;
1048;SDS011;513;51.444;7.196;2023-05-10T14:18:25;6.67;;;4.70;;
1048;SDS011;513;51.444;7.196;2023-05-10T14:20:52;6.40;;;4.80;;
1048;SDS011;513;51.444;7.196;2023-05-10T14:23:19;6.13;;;4.60;;
1048;SDS011;513;51.444;7.196;2023-05-10T14:25:48;8.45;;;5.88;;
1048;SDS011;513;51.444;7.196;2023-05-10T14:28:17;8.05;;;5.82;;
1048;SDS011;513;51.444;7.196;2023-05-10T14:30:44;8.52;;;6.68;;
1048;SDS011;513;51.444;7.196;2023-05-10T14:33:11;8.57;;;6.35;;
1048;SDS011;513;51.444;7.196;2023-05-10T14:35:38;9.35;;;6.35;;
1048;SDS011;513;51.444;7.196;2023-05-10T14:38:04;7.90;;;6.10;;
1048;SDS011;513;51.444;7.196;2023-05-10T14:40:31;6.72;;;5.28;;
1048;SDS011;513;51.444;7.196;2023-05-10T14:42:58;7.20;;;5.65;;
1048;SDS011;513;51.444;7.196;2023-05-10T14:45:26;7.25;;;5.72;;
1048;SDS011;513;51.444;7.196;2023-05-10T14:47:53;6.63;;;4.70;;
1048;SDS011;513;51.444;7.196;2023-05-10T14:50:19;7.03;;;4.68;;
1048;SDS011;513;51.444;7.196;2023-05-10T14:52:46;7.15;;;5.10;;
1048;SDS011;513;51.444;7.196;2023-05-10T14:55:13;6.75;;;4.82;;
1048;SDS011;513;51.444;7.196;2023-05-10T14:57:39;6.57;;;4.60;;
1048;SDS011;513;51.444;7.196;2023-05-10T15:00:06;5.75;;;4.75;;
1048;SDS011;513;51.444;7.196;2023-05-10T15:02:35;7.07;;;4.60;;
1048;SDS011;513;51.444;7.196;2023-05-10T15:05:02;6.68;;;5.13;;
1048;SDS011;513;51.444;7.196;2023-05-10T15:07:29;8.10;;;5.10;;
1048;SDS011;513;51.444;7.196;2023-05-10T15:09:56;6.75;;;5.63;;
1048;SDS011;513;51.444;7.196;2023-05-10T15:12:22;9.98;;;8.02;;
1048;SDS011;513;51.444;7.196;2023-05-10T15:14:49;11.98;;;8.68;;